createdAt,value
2022-08-25T00:00:23.458Z,1.00
2022-08-25T00:02:55.575Z,1.00
2022-08-25T00:05:32.191Z,1.00
2022-08-25T00:08:02.004Z,1.00
2022-08-25T00:10:30.996Z,1.00
2022-08-25T00:13:00.223Z,1.00
2022-08-25T00:15:29.813Z,1.00
2022-08-25T00:17:59.050Z,1.00
2022-08-25T00:20:29.378Z,1.00
2022-08-25T00:22:57.951Z,1.00
2022-08-25T00:25:26.407Z,1.00
2022-08-25T00:27:54.933Z,1.00
2022-08-25T00:30:23.958Z,1.00
2022-08-25T00:32:55.152Z,1.00
2022-08-25T00:35:26.406Z,1.00
2022-08-25T00:37:55.366Z,1.00
2022-08-25T00:40:25.662Z,1.00
2022-08-25T00:42:56.286Z,1.00
2022-08-25T00:45:25.645Z,1.00
2022-08-25T00:47:54.411Z,1.00
2022-08-25T00:50:26.538Z,1.00
2022-08-25T00:52:58.043Z,1.00
2022-08-25T00:55:40.048Z,1.00
2022-08-25T00:58:18.713Z,1.00
2022-08-25T01:00:51.350Z,1.00
2022-08-25T01:03:21.867Z,1.00
2022-08-25T01:05:55.710Z,1.00
2022-08-25T01:08:29.103Z,1.00
2022-08-25T01:11:01.572Z,1.00
2022-08-25T01:13:57.003Z,1.00
2022-08-25T01:16:25.984Z,1.00
2022-08-25T01:18:57.537Z,1.00
2022-08-25T01:21:28.127Z,1.00
2022-08-25T01:23:59.351Z,1.00
2022-08-25T01:26:32.693Z,1.00
2022-08-25T01:29:21.866Z,1.00
2022-08-25T01:31:53.352Z,1.00
2022-08-25T01:34:23.118Z,1.00
2022-08-25T01:36:52.132Z,1.00
2022-08-25T01:39:20.932Z,1.00
2022-08-25T01:41:55.301Z,1.00
2022-08-25T01:44:23.825Z,1.00
2022-08-25T01:46:53.312Z,1.00
2022-08-25T01:49:22.004Z,1.00
2022-08-25T01:51:56.814Z,1.00
2022-08-25T01:54:25.737Z,1.00
2022-08-25T01:56:54.203Z,1.00
2022-08-25T01:59:23.851Z,1.00
2022-08-25T02:01:59.823Z,1.00
2022-08-25T02:04:33.061Z,1.00
2022-08-25T02:07:04.160Z,1.00
2022-08-25T02:09:33.270Z,1.00
2022-08-25T02:12:02.291Z,1.00
2022-08-25T02:14:30.808Z,1.00
2022-08-25T02:16:59.220Z,1.00
2022-08-25T02:19:31.808Z,1.00
2022-08-25T02:22:01.847Z,1.00
2022-08-25T02:24:30.296Z,1.00
2022-08-25T02:26:59.110Z,1.00
2022-08-25T02:29:27.662Z,1.00
2022-08-25T02:31:56.048Z,1.00
2022-08-25T02:34:24.724Z,1.00
2022-08-25T02:36:53.160Z,1.00
2022-08-25T02:39:21.612Z,1.00
2022-08-25T02:41:50.207Z,1.00
2022-08-25T02:44:18.830Z,1.00
2022-08-25T02:46:47.259Z,1.00
2022-08-25T02:49:15.710Z,1.00
2022-08-25T02:51:44.161Z,1.00
2022-08-25T02:54:12.754Z,1.00
2022-08-25T02:56:42.052Z,1.00
2022-08-25T02:59:12.586Z,1.00
2022-08-25T03:01:42.291Z,1.00
2022-08-25T03:04:10.893Z,1.00
2022-08-25T03:06:40.483Z,1.00
2022-08-25T03:09:09.400Z,1.00
2022-08-25T03:11:39.160Z,1.00
2022-08-25T03:14:09.216Z,1.00
2022-08-25T03:16:37.932Z,1.00
2022-08-25T03:19:07.285Z,1.00
2022-08-25T03:21:35.824Z,1.00
2022-08-25T03:24:04.411Z,1.00
2022-08-25T03:26:51.152Z,1.00
2022-08-25T03:29:19.526Z,1.00
2022-08-25T03:31:48.162Z,1.00
2022-08-25T03:34:18.825Z,1.00
2022-08-25T03:36:51.255Z,1.00
2022-08-25T03:39:21.151Z,1.00
2022-08-25T03:41:50.357Z,1.00
2022-08-25T03:44:20.276Z,1.00
2022-08-25T03:46:52.119Z,1.00
2022-08-25T03:49:23.791Z,1.00
2022-08-25T03:51:55.477Z,1.00
2022-08-25T03:54:26.472Z,1.00
2022-08-25T03:56:54.929Z,1.00
2022-08-25T03:59:23.486Z,1.00
2022-08-25T04:01:55.215Z,1.00
2022-08-25T04:04:24.204Z,1.00
2022-08-25T04:06:53.699Z,1.00
2022-08-25T04:09:22.252Z,1.00
2022-08-25T04:11:52.017Z,1.00
2022-08-25T04:14:22.707Z,1.00
2022-08-25T04:16:51.496Z,1.00
2022-08-25T04:19:21.111Z,1.00
2022-08-25T04:21:49.524Z,1.00
2022-08-25T04:24:18.201Z,1.00
2022-08-25T04:26:52.080Z,1.00
2022-08-25T04:29:23.535Z,1.00
2022-08-25T04:31:53.861Z,1.00
2022-08-25T04:34:30.813Z,1.00
2022-08-25T04:37:07.255Z,1.00
2022-08-25T04:39:36.096Z,1.00
2022-08-25T04:42:05.394Z,1.00
2022-08-25T04:44:34.116Z,1.00
2022-08-25T04:47:02.581Z,1.00
2022-08-25T04:49:32.771Z,1.00
2022-08-25T04:52:01.363Z,1.00
2022-08-25T04:54:29.731Z,1.00
2022-08-25T04:57:06.057Z,1.00
2022-08-25T04:59:34.468Z,1.00
2022-08-25T05:02:03.834Z,1.00
2022-08-25T05:04:33.644Z,1.00
2022-08-25T05:07:02.295Z,1.00
2022-08-25T05:09:32.593Z,1.00
2022-08-25T05:12:02.783Z,1.00
2022-08-25T05:14:32.447Z,1.00
2022-08-25T05:17:01.071Z,1.00
2022-08-25T05:19:29.485Z,1.00
2022-08-25T05:21:58.255Z,1.00
2022-08-25T05:24:28.736Z,1.00
2022-08-25T05:26:57.539Z,1.00
2022-08-25T05:29:26.091Z,1.00
2022-08-25T05:31:54.837Z,1.00
2022-08-25T05:34:23.387Z,1.00
2022-08-25T05:36:52.305Z,1.00
2022-08-25T05:39:20.730Z,1.00
2022-08-25T05:41:49.163Z,1.00
2022-08-25T05:44:21.187Z,1.00
2022-08-25T05:46:50.486Z,1.00
2022-08-25T05:49:19.582Z,1.00
2022-08-25T05:51:47.933Z,1.00
2022-08-25T05:54:16.579Z,1.00
2022-08-25T05:56:46.187Z,1.00
2022-08-25T05:59:14.828Z,1.00
2022-08-25T06:02:01.389Z,1.00
2022-08-25T06:04:29.930Z,1.00
2022-08-25T06:06:58.271Z,1.00
2022-08-25T06:09:27.318Z,1.00
2022-08-25T06:11:55.745Z,1.00
2022-08-25T06:14:25.224Z,1.00
2022-08-25T06:16:54.332Z,1.00
2022-08-25T06:19:24.057Z,1.00
2022-08-25T06:21:56.502Z,1.00
2022-08-25T06:24:26.926Z,1.00
2022-08-25T06:26:56.167Z,1.00
2022-08-25T06:29:25.171Z,1.00
2022-08-25T06:31:53.795Z,1.00
2022-08-25T06:34:24.046Z,1.00
2022-08-25T06:36:53.074Z,1.00
2022-08-25T06:39:21.956Z,1.00
2022-08-25T06:41:59.369Z,1.00
2022-08-25T06:44:31.223Z,1.00
2022-08-25T06:46:59.677Z,1.00
2022-08-25T06:49:33.046Z,1.00
2022-08-25T06:52:04.950Z,1.00
2022-08-25T06:54:33.462Z,1.00
2022-08-25T06:57:02.192Z,1.00
2022-08-25T06:59:32.095Z,1.00
2022-08-25T07:02:01.615Z,1.00
2022-08-25T07:04:33.060Z,1.00
2022-08-25T07:07:01.948Z,1.00
2022-08-25T07:09:30.395Z,1.00
2022-08-25T07:11:59.556Z,1.00
2022-08-25T07:14:27.897Z,1.00
2022-08-25T07:16:56.389Z,1.00
2022-08-25T07:19:24.784Z,1.00
2022-08-25T07:21:54.973Z,1.00
2022-08-25T07:24:24.263Z,1.00
2022-08-25T07:26:53.094Z,1.00
2022-08-25T07:29:32.670Z,1.00
2022-08-25T07:32:03.153Z,1.00
2022-08-25T07:37:49.212Z,1.00
2022-08-25T07:40:27.084Z,1.00
2022-08-25T07:42:58.298Z,1.00
2022-08-25T07:45:31.455Z,1.00
2022-08-25T07:48:01.901Z,1.00
2022-08-25T07:50:32.183Z,1.00
2022-08-25T07:53:01.401Z,1.00
2022-08-25T07:55:31.294Z,1.00
2022-08-25T07:58:01.041Z,1.00
2022-08-25T08:00:31.683Z,1.00
2022-08-25T08:03:03.784Z,1.00
2022-08-25T08:05:33.329Z,1.00
2022-08-25T08:08:02.926Z,1.00
2022-08-25T08:10:53.888Z,1.00
2022-08-25T08:13:20.500Z,1.00
2022-08-25T08:15:49.870Z,1.00
2022-08-25T08:18:18.740Z,1.00
2022-08-25T08:20:49.017Z,1.00
2022-08-25T08:23:18.327Z,1.00
2022-08-25T08:25:46.803Z,1.00
2022-08-25T08:28:15.304Z,1.00
2022-08-25T08:30:53.128Z,1.00
2022-08-25T08:33:23.593Z,1.00
2022-08-25T08:36:09.236Z,1.00
2022-08-25T08:38:39.263Z,1.00
2022-08-25T08:42:07.194Z,1.00
2022-08-25T08:44:46.313Z,1.00
2022-08-25T08:47:29.861Z,1.00
2022-08-25T08:50:23.144Z,1.00
2022-08-25T08:53:20.652Z,1.00
2022-08-25T08:55:54.639Z,1.00
2022-08-25T08:58:52.347Z,1.00
2022-08-25T09:01:33.174Z,1.00
2022-08-25T09:04:14.213Z,1.00
2022-08-25T09:06:51.606Z,1.00
2022-08-25T09:09:39.875Z,1.00
2022-08-25T09:12:32.437Z,1.00
2022-08-25T09:15:12.622Z,1.00
2022-08-25T09:17:54.753Z,1.00
2022-08-25T09:20:45.945Z,1.00
2022-08-25T09:23:33.021Z,1.00
2022-08-25T09:26:17.054Z,1.00
2022-08-25T09:28:56.301Z,1.00
2022-08-25T09:31:34.396Z,1.00
2022-08-25T09:34:13.001Z,1.00
2022-08-25T09:36:42.675Z,1.00
2022-08-25T09:39:11.195Z,1.00
2022-08-25T09:41:56.905Z,1.00
2022-08-25T09:44:39.726Z,1.00
2022-08-25T09:47:23.198Z,1.00
2022-08-25T09:50:05.375Z,1.00
2022-08-25T09:52:41.292Z,1.00
2022-08-25T09:55:13.199Z,1.00
2022-08-25T09:57:46.128Z,1.00
2022-08-25T10:00:34.241Z,1.00
2022-08-25T10:03:06.448Z,1.00
2022-08-25T10:06:03.037Z,1.40
2022-08-25T10:08:37.470Z,3.90
2022-08-25T10:11:29.860Z,9.20
2022-08-25T10:14:15.397Z,5.40
2022-08-25T10:16:47.016Z,11.00
2022-08-25T10:19:24.807Z,18.00
2022-08-25T10:22:22.880Z,18.60
2022-08-25T10:24:51.945Z,22.10
2022-08-25T10:27:48.324Z,29.70
2022-08-25T10:30:38.474Z,30.90
2022-08-25T10:33:40.355Z,40.60
2022-08-25T10:36:20.361Z,36.30
2022-08-25T10:38:58.834Z,43.40
2022-08-25T10:41:42.205Z,41.30
2022-08-25T10:44:36.365Z,40.50
2022-08-25T10:47:33.348Z,35.70
2022-08-25T10:50:24.430Z,40.90
2022-08-25T10:53:29.934Z,45.10
2022-08-25T10:56:19.743Z,53.60
2022-08-25T10:59:05.727Z,61.90
2022-08-25T11:01:53.684Z,60.50
2022-08-25T11:04:37.527Z,63.60
2022-08-25T11:07:16.952Z,63.70
2022-08-25T11:09:50.755Z,70.90
2022-08-25T11:12:57.071Z,64.90
2022-08-25T11:16:13.315Z,67.00
2022-08-25T11:19:00.487Z,71.70
2022-08-25T11:21:55.436Z,72.60
2022-08-25T11:25:01.936Z,80.50
2022-08-25T11:27:55.705Z,82.00
2022-08-25T11:30:24.378Z,83.30
2022-08-25T11:32:55.716Z,82.00
2022-08-25T11:35:59.599Z,83.60
2022-08-25T11:39:00.628Z,81.00
2022-08-25T11:41:57.306Z,82.30
2022-08-25T11:44:54.984Z,86.40
2022-08-25T11:47:45.167Z,89.30
2022-08-25T11:50:35.170Z,90.70
2022-08-25T11:53:28.959Z,91.90
2022-08-25T11:56:13.603Z,90.30
2022-08-25T11:58:45.800Z,90.00
2022-08-25T12:01:46.693Z,90.30
2022-08-25T12:04:15.686Z,94.00
2022-08-25T12:07:09.680Z,96.30
2022-08-25T12:09:57.062Z,97.70
2022-08-25T12:12:38.727Z,99.90
2022-08-25T12:15:45.900Z,99.90
2022-08-25T12:18:45.782Z,99.70
2022-08-25T12:21:17.512Z,98.20
2022-08-25T12:24:10.267Z,98.30
2022-08-25T12:26:46.553Z,99.90
2022-08-25T12:29:31.609Z,99.90
2022-08-25T12:32:04.360Z,99.90
2022-08-25T12:35:11.019Z,99.90
2022-08-25T12:38:02.762Z,99.90
2022-08-25T12:40:45.424Z,99.90
2022-08-25T12:43:27.405Z,99.90
2022-08-25T12:46:30.014Z,99.90
2022-08-25T12:49:03.110Z,99.90
2022-08-25T12:51:48.841Z,99.90
2022-08-25T12:54:50.180Z,99.90
2022-08-25T12:57:46.036Z,99.90
2022-08-25T13:00:22.157Z,99.90
2022-08-25T13:02:54.279Z,99.90
2022-08-25T13:05:54.674Z,99.90
2022-08-25T13:08:44.785Z,99.90
2022-08-25T13:11:21.440Z,99.90
2022-08-25T13:14:11.655Z,99.90
2022-08-25T13:16:40.246Z,99.90
2022-08-25T13:19:19.170Z,99.90
2022-08-25T13:21:50.158Z,99.90
2022-08-25T13:24:28.311Z,99.90
2022-08-25T13:27:00.696Z,99.90
2022-08-25T13:29:37.390Z,99.90
2022-08-25T13:32:14.440Z,99.90
2022-08-25T13:34:44.103Z,99.90
2022-08-25T13:37:29.516Z,99.90
2022-08-25T13:40:26.558Z,99.90
2022-08-25T13:43:01.073Z,99.90
2022-08-25T13:45:40.921Z,99.90
2022-08-25T13:48:22.931Z,99.90
2022-08-25T13:51:07.290Z,99.90
2022-08-25T13:53:37.641Z,99.90
2022-08-25T13:56:06.402Z,99.90
2022-08-25T13:58:44.240Z,99.90
2022-08-25T14:01:47.210Z,99.90
2022-08-25T14:04:50.596Z,99.90
2022-08-25T14:07:34.388Z,99.90
2022-08-25T14:10:10.215Z,99.90
2022-08-25T14:12:47.602Z,99.90
2022-08-25T14:15:18.997Z,99.90
2022-08-25T14:18:07.298Z,99.90
2022-08-25T14:20:37.986Z,99.90
2022-08-25T14:23:16.244Z,99.90
2022-08-25T14:25:48.127Z,99.90
2022-08-25T14:28:21.281Z,99.90
2022-08-25T14:30:57.395Z,99.90
2022-08-25T14:33:32.451Z,99.90
2022-08-25T14:36:03.619Z,99.90
2022-08-25T14:38:32.771Z,99.80
2022-08-25T14:41:01.460Z,97.20
2022-08-25T14:43:32.431Z,97.00
2022-08-25T14:46:04.305Z,96.10
2022-08-25T14:48:46.534Z,93.30
2022-08-25T14:51:17.714Z,92.10
2022-08-25T14:53:46.512Z,88.90
2022-08-25T14:56:15.124Z,78.10
2022-08-25T14:58:50.829Z,82.80
2022-08-25T15:01:29.539Z,77.10
2022-08-25T15:04:18.345Z,66.40
2022-08-25T15:06:50.544Z,49.00
2022-08-25T15:09:21.953Z,33.50
2022-08-25T15:11:54.548Z,25.40
2022-08-25T15:14:28.821Z,21.00
2022-08-25T15:17:02.754Z,26.40
2022-08-25T15:19:31.623Z,11.80
2022-08-25T15:22:00.004Z,14.60
2022-08-25T15:24:29.932Z,15.70
2022-08-25T15:27:01.854Z,21.80
2022-08-25T15:29:31.990Z,3.50
2022-08-25T15:32:01.579Z,1.20
2022-08-25T15:34:31.195Z,1.00
2022-08-25T15:37:01.634Z,1.00
2022-08-25T15:39:31.300Z,1.00
2022-08-25T15:41:59.677Z,1.00
2022-08-25T15:44:29.618Z,1.00
2022-08-25T15:46:59.639Z,1.00
2022-08-25T15:49:31.313Z,1.00
2022-08-25T15:52:01.082Z,1.00
2022-08-25T15:54:30.884Z,1.00
2022-08-25T15:57:00.223Z,1.00
2022-08-25T15:59:29.562Z,1.00
2022-08-25T16:01:58.490Z,1.00
2022-08-25T16:04:29.390Z,1.00
2022-08-25T16:06:58.652Z,1.00
2022-08-25T16:09:27.943Z,1.00
2022-08-25T16:12:02.670Z,1.00
2022-08-25T16:14:34.175Z,1.00
2022-08-25T16:17:03.643Z,1.00
2022-08-25T16:19:32.371Z,1.00
2022-08-25T16:22:01.636Z,1.00
2022-08-25T16:24:31.012Z,1.00
2022-08-25T16:27:11.455Z,1.00
2022-08-25T16:29:43.059Z,1.00
2022-08-25T16:32:13.604Z,1.00
2022-08-25T16:34:43.050Z,1.00
2022-08-25T16:37:13.195Z,1.00
2022-08-25T16:39:44.925Z,1.00
2022-08-25T16:42:13.718Z,1.00
2022-08-25T16:44:42.252Z,1.00
2022-08-25T16:47:14.123Z,1.00
2022-08-25T16:49:43.530Z,1.00
2022-08-25T16:52:30.691Z,1.00
2022-08-25T16:55:15.184Z,1.00
2022-08-25T16:57:55.927Z,1.00
2022-08-25T17:00:29.016Z,1.00
2022-08-25T17:03:00.271Z,1.00
2022-08-25T17:05:30.566Z,1.00
2022-08-25T17:08:20.294Z,1.00
2022-08-25T17:10:50.156Z,1.00
2022-08-25T17:13:18.514Z,1.00
2022-08-25T17:15:52.297Z,1.00
2022-08-25T17:18:21.402Z,1.00
2022-08-25T17:20:51.274Z,1.00
2022-08-25T17:23:21.007Z,1.00
2022-08-25T17:25:52.911Z,1.00
2022-08-25T17:28:21.700Z,1.00
2022-08-25T17:30:51.336Z,1.00
2022-08-25T17:33:24.006Z,1.00
2022-08-25T17:35:54.812Z,1.00
2022-08-25T17:38:28.541Z,1.00
2022-08-25T17:40:59.840Z,1.00
2022-08-25T17:43:29.636Z,1.00
2022-08-25T17:45:59.215Z,1.00
2022-08-25T17:48:28.999Z,1.00
2022-08-25T17:51:02.781Z,1.00
2022-08-25T17:53:31.194Z,1.00
2022-08-25T17:56:02.215Z,1.00
2022-08-25T17:58:31.261Z,1.00
2022-08-25T18:01:00.926Z,1.00
2022-08-25T18:03:30.084Z,1.00
2022-08-25T18:05:58.849Z,1.00
2022-08-25T18:08:35.138Z,1.00
2022-08-25T18:11:05.617Z,1.00
2022-08-25T18:13:37.164Z,1.00
2022-08-25T18:16:07.588Z,1.00
2022-08-25T18:18:37.445Z,1.00
2022-08-25T18:21:06.932Z,1.00
2022-08-25T18:23:35.379Z,1.00
2022-08-25T18:26:03.785Z,1.00
2022-08-25T18:28:35.308Z,1.00
2022-08-25T18:31:03.912Z,1.00
2022-08-25T18:33:32.475Z,1.00
2022-08-25T18:36:01.003Z,1.00
2022-08-25T18:38:47.566Z,1.00
2022-08-25T18:41:16.034Z,1.00
2022-08-25T18:43:44.935Z,1.00
2022-08-25T18:46:13.619Z,1.00
2022-08-25T18:48:44.403Z,1.00
2022-08-25T18:51:13.407Z,1.00
2022-08-25T18:53:50.196Z,1.00
2022-08-25T18:56:20.015Z,1.00
2022-08-25T18:58:49.358Z,1.00
2022-08-25T19:01:19.830Z,1.00
2022-08-25T19:03:48.493Z,1.00
2022-08-25T19:09:09.181Z,1.00
2022-08-25T19:11:37.624Z,1.00
2022-08-25T19:14:08.094Z,1.00
2022-08-25T19:16:43.626Z,1.00
2022-08-25T19:19:14.367Z,1.00
2022-08-25T19:21:43.436Z,1.00
2022-08-25T19:24:14.599Z,1.00
2022-08-25T19:26:44.186Z,1.00
2022-08-25T19:29:15.679Z,1.00
2022-08-25T19:31:47.223Z,1.00
2022-08-25T19:34:21.336Z,1.00
2022-08-25T19:36:50.792Z,1.00
2022-08-25T19:39:19.779Z,1.00
2022-08-25T19:41:49.660Z,1.00
2022-08-25T19:44:18.588Z,1.00
2022-08-25T19:46:47.901Z,1.00
2022-08-25T19:49:27.103Z,1.00
2022-08-25T19:51:57.407Z,1.00
2022-08-25T19:54:33.799Z,1.00
2022-08-25T19:57:03.422Z,1.00
2022-08-25T19:59:40.771Z,1.00
2022-08-25T20:02:15.067Z,1.00
2022-08-25T20:04:50.093Z,1.00
2022-08-25T20:07:21.958Z,1.00
2022-08-25T20:09:54.509Z,1.00
2022-08-25T20:12:24.019Z,1.00
2022-08-25T20:14:54.266Z,1.00
2022-08-25T20:17:26.218Z,1.00
2022-08-25T20:20:00.410Z,1.00
2022-08-25T20:22:32.950Z,1.00
2022-08-25T20:25:13.101Z,1.00
2022-08-25T20:27:51.790Z,1.00
2022-08-25T20:30:25.411Z,1.00
2022-08-25T20:32:55.913Z,1.00
2022-08-25T20:35:27.768Z,1.00
2022-08-25T20:37:58.953Z,1.00
2022-08-25T20:40:30.343Z,1.00
2022-08-25T20:43:03.167Z,1.00
2022-08-25T20:45:31.854Z,1.00
2022-08-25T20:48:00.876Z,1.00
2022-08-25T20:50:29.512Z,1.00
2022-08-25T20:52:59.500Z,1.00
2022-08-25T20:55:29.707Z,1.00
2022-08-25T20:57:58.250Z,1.00
2022-08-25T21:00:26.759Z,1.00
2022-08-25T21:02:55.732Z,1.00
2022-08-25T21:05:24.340Z,1.00
2022-08-25T21:07:52.985Z,1.00
2022-08-25T21:10:21.492Z,1.00
2022-08-25T21:12:53.294Z,1.00
2022-08-25T21:15:22.126Z,1.00
2022-08-25T21:17:54.383Z,1.00
2022-08-25T21:20:27.824Z,1.00
2022-08-25T21:23:04.477Z,1.00
2022-08-25T21:25:41.820Z,1.00
2022-08-25T21:28:11.218Z,1.00
2022-08-25T21:30:44.687Z,1.00
2022-08-25T21:33:16.256Z,1.00
2022-08-25T21:35:45.184Z,1.00
2022-08-25T21:38:15.450Z,1.00
2022-08-25T21:40:44.930Z,1.00
2022-08-25T21:43:13.562Z,1.00
2022-08-25T21:45:46.652Z,1.00
2022-08-25T21:48:15.532Z,1.00
2022-08-25T21:50:43.996Z,1.00
2022-08-25T21:53:12.475Z,1.00
2022-08-25T21:55:42.266Z,1.00
2022-08-25T21:58:10.866Z,1.00
2022-08-25T22:00:39.336Z,1.00
2022-08-25T22:03:07.903Z,1.00
2022-08-25T22:05:38.055Z,1.00
2022-08-25T22:08:06.652Z,1.00
2022-08-25T22:10:35.572Z,1.00
2022-08-25T22:13:06.361Z,1.00
2022-08-25T22:15:34.862Z,1.00
2022-08-25T22:18:03.374Z,1.00
2022-08-25T22:20:32.285Z,1.00
2022-08-25T22:23:01.019Z,1.00
2022-08-25T22:25:29.563Z,1.00
2022-08-25T22:27:59.897Z,1.00
2022-08-25T22:30:29.611Z,1.00
2022-08-25T22:32:59.836Z,1.00
2022-08-25T22:35:31.795Z,1.00
2022-08-25T22:38:01.904Z,1.00
2022-08-25T22:40:33.890Z,1.00
2022-08-25T22:43:02.569Z,1.00
2022-08-25T22:45:31.887Z,1.00
2022-08-25T22:48:01.627Z,1.00
2022-08-25T22:50:30.235Z,1.00
2022-08-25T22:52:58.940Z,1.00
2022-08-25T22:55:28.123Z,1.00
2022-08-25T22:57:56.928Z,1.00
2022-08-25T23:00:25.372Z,1.00
2022-08-25T23:02:54.379Z,1.00
2022-08-25T23:05:23.052Z,1.00
2022-08-25T23:07:51.463Z,1.00
2022-08-25T23:10:21.569Z,1.00
2022-08-25T23:12:50.141Z,1.00
2022-08-25T23:15:18.712Z,1.00
2022-08-25T23:17:47.092Z,1.00
2022-08-25T23:20:34.800Z,1.00
2022-08-25T23:23:03.561Z,1.00
2022-08-25T23:25:32.703Z,1.00
2022-08-25T23:28:01.200Z,1.00
2022-08-25T23:30:30.745Z,1.00
2022-08-25T23:32:59.440Z,1.00
2022-08-25T23:35:29.605Z,1.00
2022-08-25T23:37:58.804Z,1.00
2022-08-25T23:40:28.482Z,1.00
2022-08-25T23:42:56.886Z,1.00
2022-08-25T23:45:25.863Z,1.00
2022-08-25T23:47:55.248Z,1.00
2022-08-25T23:50:23.686Z,1.00
2022-08-25T23:52:53.564Z,1.00
2022-08-25T23:55:23.228Z,1.00
2022-08-25T23:57:54.115Z,1.00
